sensor_id;sensor_type;location;lat;lon;timestamp;P1;durP1;ratioP1;P2;durP2;ratioP2
3567;SDS011;1798;48.486;9.232;2023-06-14T00:01:45;18.33;;;6.40;;
3567;SDS011;1798;48.486;9.232;2023-06-14T00:04:13;10.23;;;5.53;;
3567;SDS011;1798;48.486;9.232;2023-06-14T00:06:41;26.73;;;6.40;;
3567;SDS011;1798;48.486;9.232;2023-06-14T00:09:10;14.60;;;6.10;;
3567;SDS011;1798;48.486;9.232;2023-06-14T00:11:39;10.83;;;6.50;;
3567;SDS011;1798;48.486;9.232;2023-06-14T00:14:06;16.83;;;7.27;;
3567;SDS011;1798;48.486;9.232;2023-06-14T00:16:33;22.10;;;6.90;;
3567;SDS011;1798;48.486;9.232;2023-06-14T00:19:00;10.57;;;5.30;;
3567;SDS011;1798;48.486;9.232;2023-06-14T00:21:28;20.47;;;6.27;;
3567;SDS011;1798;48.486;9.232;2023-06-14T00:23:55;10.20;;;5.47;;
3567;SDS011;1798;48.486;9.232;2023-06-14T00:26:22;12.47;;;6.00;;
3567;SDS011;1798;48.486;9.232;2023-06-14T00:28:50;12.37;;;6.93;;
3567;SDS011;1798;48.486;9.232;2023-06-14T00:31:17;17.47;;;5.90;;
3567;SDS011;1798;48.486;9.232;2023-06-14T00:33:43;22.37;;;5.70;;
3567;SDS011;1798;48.486;9.232;2023-06-14T00:36:10;15.87;;;6.10;;
3567;SDS011;1798;48.486;9.232;2023-06-14T00:38:37;15.33;;;5.87;;
3567;SDS011;1798;48.486;9.232;2023-06-14T00:41:04;14.40;;;6.27;;
3567;SDS011;1798;48.486;9.232;2023-06-14T00:43:31;17.30;;;6.20;;
3567;SDS011;1798;48.486;9.232;2023-06-14T00:46:01;9.67;;;5.53;;
3567;SDS011;1798;48.486;9.232;2023-06-14T00:48:27;14.53;;;6.40;;
3567;SDS011;1798;48.486;9.232;2023-06-14T00:50:55;9.97;;;5.53;;
3567;SDS011;1798;48.486;9.232;2023-06-14T00:53:22;17.43;;;6.53;;
3567;SDS011;1798;48.486;9.232;2023-06-14T00:55:50;11.50;;;6.03;;
3567;SDS011;1798;48.486;9.232;2023-06-14T00:58:16;11.50;;;5.00;;
3567;SDS011;1798;48.486;9.232;2023-06-14T01:00:43;11.50;;;4.70;;
3567;SDS011;1798;48.486;9.232;2023-06-14T01:03:11;19.00;;;6.33;;
3567;SDS011;1798;48.486;9.232;2023-06-14T01:05:40;12.70;;;6.13;;
3567;SDS011;1798;48.486;9.232;2023-06-14T01:08:13;17.67;;;6.20;;
3567;SDS011;1798;48.486;9.232;2023-06-14T01:10:45;16.30;;;6.17;;
3567;SDS011;1798;48.486;9.232;2023-06-14T01:13:19;11.20;;;5.80;;
3567;SDS011;1798;48.486;9.232;2023-06-14T01:15:47;25.70;;;6.20;;
3567;SDS011;1798;48.486;9.232;2023-06-14T01:18:15;11.83;;;5.90;;
3567;SDS011;1798;48.486;9.232;2023-06-14T01:20:43;15.90;;;5.97;;
3567;SDS011;1798;48.486;9.232;2023-06-14T01:23:13;12.73;;;5.90;;
3567;SDS011;1798;48.486;9.232;2023-06-14T01:25:40;11.00;;;5.97;;
3567;SDS011;1798;48.486;9.232;2023-06-14T01:28:09;14.67;;;6.50;;
3567;SDS011;1798;48.486;9.232;2023-06-14T01:30:38;12.80;;;6.43;;
3567;SDS011;1798;48.486;9.232;2023-06-14T01:33:07;10.93;;;6.27;;
3567;SDS011;1798;48.486;9.232;2023-06-14T01:35:37;16.37;;;7.00;;
3567;SDS011;1798;48.486;9.232;2023-06-14T01:38:04;12.13;;;6.30;;
3567;SDS011;1798;48.486;9.232;2023-06-14T01:40:33;13.43;;;6.90;;
3567;SDS011;1798;48.486;9.232;2023-06-14T01:43:01;11.23;;;5.80;;
3567;SDS011;1798;48.486;9.232;2023-06-14T01:45:28;9.70;;;5.57;;
3567;SDS011;1798;48.486;9.232;2023-06-14T01:47:55;13.00;;;6.07;;
3567;SDS011;1798;48.486;9.232;2023-06-14T01:50:22;14.57;;;8.10;;
3567;SDS011;1798;48.486;9.232;2023-06-14T01:52:48;9.60;;;5.20;;
3567;SDS011;1798;48.486;9.232;2023-06-14T01:55:15;14.07;;;6.67;;
3567;SDS011;1798;48.486;9.232;2023-06-14T01:57:44;13.53;;;5.80;;
3567;SDS011;1798;48.486;9.232;2023-06-14T02:00:11;11.50;;;5.47;;
3567;SDS011;1798;48.486;9.232;2023-06-14T02:02:39;21.43;;;6.30;;
3567;SDS011;1798;48.486;9.232;2023-06-14T02:05:06;15.27;;;6.00;;
3567;SDS011;1798;48.486;9.232;2023-06-14T02:07:34;12.23;;;5.87;;
3567;SDS011;1798;48.486;9.232;2023-06-14T02:10:01;18.70;;;6.57;;
3567;SDS011;1798;48.486;9.232;2023-06-14T02:12:28;16.00;;;6.17;;
3567;SDS011;1798;48.486;9.232;2023-06-14T02:14:56;11.57;;;6.20;;
3567;SDS011;1798;48.486;9.232;2023-06-14T02:17:23;14.90;;;5.67;;
3567;SDS011;1798;48.486;9.232;2023-06-14T02:19:51;9.70;;;5.63;;
3567;SDS011;1798;48.486;9.232;2023-06-14T02:22:18;14.73;;;5.93;;
3567;SDS011;1798;48.486;9.232;2023-06-14T02:24:47;11.83;;;6.20;;
3567;SDS011;1798;48.486;9.232;2023-06-14T02:27:14;12.67;;;6.00;;
3567;SDS011;1798;48.486;9.232;2023-06-14T02:29:41;14.17;;;5.50;;
3567;SDS011;1798;48.486;9.232;2023-06-14T02:32:10;14.07;;;6.10;;
3567;SDS011;1798;48.486;9.232;2023-06-14T02:34:36;11.50;;;6.03;;
3567;SDS011;1798;48.486;9.232;2023-06-14T02:37:06;20.00;;;5.70;;
3567;SDS011;1798;48.486;9.232;2023-06-14T02:39:33;14.10;;;5.37;;
3567;SDS011;1798;48.486;9.232;2023-06-14T02:42:00;11.77;;;6.27;;
3567;SDS011;1798;48.486;9.232;2023-06-14T02:44:26;11.00;;;6.10;;
3567;SDS011;1798;48.486;9.232;2023-06-14T02:46:53;24.33;;;6.53;;
3567;SDS011;1798;48.486;9.232;2023-06-14T02:49:22;11.17;;;5.90;;
3567;SDS011;1798;48.486;9.232;2023-06-14T02:51:49;10.03;;;5.00;;
3567;SDS011;1798;48.486;9.232;2023-06-14T02:54:15;12.00;;;6.10;;
3567;SDS011;1798;48.486;9.232;2023-06-14T02:56:42;12.57;;;6.30;;
3567;SDS011;1798;48.486;9.232;2023-06-14T02:59:09;12.77;;;6.50;;
3567;SDS011;1798;48.486;9.232;2023-06-14T03:01:36;10.60;;;5.70;;
3567;SDS011;1798;48.486;9.232;2023-06-14T03:04:06;15.20;;;6.73;;
3567;SDS011;1798;48.486;9.232;2023-06-14T03:06:34;28.07;;;6.43;;
3567;SDS011;1798;48.486;9.232;2023-06-14T03:09:01;14.40;;;6.57;;
3567;SDS011;1798;48.486;9.232;2023-06-14T03:11:29;16.80;;;5.53;;
3567;SDS011;1798;48.486;9.232;2023-06-14T03:13:56;8.73;;;4.90;;
3567;SDS011;1798;48.486;9.232;2023-06-14T03:16:23;17.23;;;6.70;;
3567;SDS011;1798;48.486;9.232;2023-06-14T03:18:50;10.87;;;5.77;;
3567;SDS011;1798;48.486;9.232;2023-06-14T03:21:17;12.83;;;6.80;;
3567;SDS011;1798;48.486;9.232;2023-06-14T03:23:46;10.63;;;5.90;;
3567;SDS011;1798;48.486;9.232;2023-06-14T03:26:13;19.30;;;6.30;;
3567;SDS011;1798;48.486;9.232;2023-06-14T03:28:40;13.33;;;6.20;;
3567;SDS011;1798;48.486;9.232;2023-06-14T03:31:06;20.00;;;6.50;;
3567;SDS011;1798;48.486;9.232;2023-06-14T03:33:33;10.57;;;6.23;;
3567;SDS011;1798;48.486;9.232;2023-06-14T03:36:01;18.70;;;6.53;;
3567;SDS011;1798;48.486;9.232;2023-06-14T03:38:28;10.23;;;5.73;;
3567;SDS011;1798;48.486;9.232;2023-06-14T03:40:56;12.43;;;5.80;;
3567;SDS011;1798;48.486;9.232;2023-06-14T03:43:23;12.20;;;6.20;;
3567;SDS011;1798;48.486;9.232;2023-06-14T03:45:50;15.63;;;6.83;;
3567;SDS011;1798;48.486;9.232;2023-06-14T03:48:16;11.43;;;6.23;;
3567;SDS011;1798;48.486;9.232;2023-06-14T03:50:43;11.90;;;6.63;;
3567;SDS011;1798;48.486;9.232;2023-06-14T03:53:10;13.73;;;6.83;;
3567;SDS011;1798;48.486;9.232;2023-06-14T03:55:37;12.33;;;5.87;;
3567;SDS011;1798;48.486;9.232;2023-06-14T03:58:06;22.50;;;6.17;;
3567;SDS011;1798;48.486;9.232;2023-06-14T04:00:32;10.13;;;5.70;;
3567;SDS011;1798;48.486;9.232;2023-06-14T04:03:01;8.50;;;4.80;;
3567;SDS011;1798;48.486;9.232;2023-06-14T04:05:29;23.10;;;6.50;;
3567;SDS011;1798;48.486;9.232;2023-06-14T04:07:56;9.60;;;5.70;;
3567;SDS011;1798;48.486;9.232;2023-06-14T04:10:24;14.80;;;7.10;;
3567;SDS011;1798;48.486;9.232;2023-06-14T04:12:50;11.47;;;6.03;;
3567;SDS011;1798;48.486;9.232;2023-06-14T04:15:19;11.00;;;6.33;;
3567;SDS011;1798;48.486;9.232;2023-06-14T04:17:45;13.63;;;6.60;;
3567;SDS011;1798;48.486;9.232;2023-06-14T04:20:12;16.50;;;6.30;;
3567;SDS011;1798;48.486;9.232;2023-06-14T04:22:39;10.10;;;5.90;;
3567;SDS011;1798;48.486;9.232;2023-06-14T04:25:06;9.90;;;5.67;;
3567;SDS011;1798;48.486;9.232;2023-06-14T04:27:33;11.77;;;5.97;;
3567;SDS011;1798;48.486;9.232;2023-06-14T04:30:01;10.70;;;5.73;;
3567;SDS011;1798;48.486;9.232;2023-06-14T04:32:29;16.20;;;6.13;;
3567;SDS011;1798;48.486;9.232;2023-06-14T04:34:58;12.10;;;6.37;;
3567;SDS011;1798;48.486;9.232;2023-06-14T04:37:27;14.90;;;7.30;;
3567;SDS011;1798;48.486;9.232;2023-06-14T04:39:55;14.37;;;6.60;;
3567;SDS011;1798;48.486;9.232;2023-06-14T04:42:22;12.27;;;6.20;;
3567;SDS011;1798;48.486;9.232;2023-06-14T04:44:50;32.03;;;6.77;;
3567;SDS011;1798;48.486;9.232;2023-06-14T04:47:20;17.57;;;6.80;;
3567;SDS011;1798;48.486;9.232;2023-06-14T04:49:47;15.43;;;6.80;;
3567;SDS011;1798;48.486;9.232;2023-06-14T04:52:15;19.40;;;7.27;;
3567;SDS011;1798;48.486;9.232;2023-06-14T04:54:42;14.10;;;5.80;;
3567;SDS011;1798;48.486;9.232;2023-06-14T04:57:09;11.90;;;6.97;;
3567;SDS011;1798;48.486;9.232;2023-06-14T04:59:38;15.30;;;6.77;;
3567;SDS011;1798;48.486;9.232;2023-06-14T05:02:05;20.20;;;10.03;;
3567;SDS011;1798;48.486;9.232;2023-06-14T05:04:34;13.50;;;6.50;;
3567;SDS011;1798;48.486;9.232;2023-06-14T05:07:06;10.30;;;6.90;;
3567;SDS011;1798;48.486;9.232;2023-06-14T05:09:33;16.73;;;6.60;;
3567;SDS011;1798;48.486;9.232;2023-06-14T05:12:00;15.53;;;6.47;;
3567;SDS011;1798;48.486;9.232;2023-06-14T05:14:26;23.03;;;6.60;;
3567;SDS011;1798;48.486;9.232;2023-06-14T05:16:53;18.70;;;7.93;;
3567;SDS011;1798;48.486;9.232;2023-06-14T05:19:20;11.77;;;6.87;;
3567;SDS011;1798;48.486;9.232;2023-06-14T05:21:47;14.80;;;5.97;;
3567;SDS011;1798;48.486;9.232;2023-06-14T05:24:15;18.43;;;6.67;;
3567;SDS011;1798;48.486;9.232;2023-06-14T05:26:43;13.70;;;6.80;;
3567;SDS011;1798;48.486;9.232;2023-06-14T05:29:10;13.17;;;7.27;;
3567;SDS011;1798;48.486;9.232;2023-06-14T05:31:36;21.73;;;7.30;;
3567;SDS011;1798;48.486;9.232;2023-06-14T05:34:03;21.07;;;7.03;;
3567;SDS011;1798;48.486;9.232;2023-06-14T05:36:30;17.77;;;6.70;;
3567;SDS011;1798;48.486;9.232;2023-06-14T05:38:57;21.87;;;8.00;;
3567;SDS011;1798;48.486;9.232;2023-06-14T05:41:26;21.07;;;7.47;;
3567;SDS011;1798;48.486;9.232;2023-06-14T05:43:54;13.13;;;7.50;;
3567;SDS011;1798;48.486;9.232;2023-06-14T05:46:21;18.80;;;7.00;;
3567;SDS011;1798;48.486;9.232;2023-06-14T05:48:50;44.20;;;7.60;;
3567;SDS011;1798;48.486;9.232;2023-06-14T05:51:17;13.70;;;7.63;;
3567;SDS011;1798;48.486;9.232;2023-06-14T05:53:44;20.43;;;7.80;;
3567;SDS011;1798;48.486;9.232;2023-06-14T05:56:11;13.27;;;8.10;;
3567;SDS011;1798;48.486;9.232;2023-06-14T05:58:40;16.70;;;7.90;;
3567;SDS011;1798;48.486;9.232;2023-06-14T06:01:06;14.80;;;7.00;;
3567;SDS011;1798;48.486;9.232;2023-06-14T06:03:33;12.57;;;6.60;;
3567;SDS011;1798;48.486;9.232;2023-06-14T06:06:00;25.43;;;7.20;;
3567;SDS011;1798;48.486;9.232;2023-06-14T06:08:28;23.63;;;7.53;;
3567;SDS011;1798;48.486;9.232;2023-06-14T06:10:55;22.13;;;8.87;;
3567;SDS011;1798;48.486;9.232;2023-06-14T06:13:21;19.10;;;8.87;;
3567;SDS011;1798;48.486;9.232;2023-06-14T06:15:49;19.00;;;8.60;;
3567;SDS011;1798;48.486;9.232;2023-06-14T06:18:17;13.07;;;7.77;;
3567;SDS011;1798;48.486;9.232;2023-06-14T06:20:44;14.90;;;7.10;;
3567;SDS011;1798;48.486;9.232;2023-06-14T06:23:12;16.90;;;8.73;;
3567;SDS011;1798;48.486;9.232;2023-06-14T06:25:39;19.53;;;8.13;;
3567;SDS011;1798;48.486;9.232;2023-06-14T06:28:06;23.60;;;9.20;;
3567;SDS011;1798;48.486;9.232;2023-06-14T06:30:33;13.90;;;8.00;;
3567;SDS011;1798;48.486;9.232;2023-06-14T06:33:01;30.07;;;7.90;;
3567;SDS011;1798;48.486;9.232;2023-06-14T06:35:28;23.37;;;8.80;;
3567;SDS011;1798;48.486;9.232;2023-06-14T06:37:55;30.23;;;8.47;;
3567;SDS011;1798;48.486;9.232;2023-06-14T06:40:22;12.43;;;6.93;;
3567;SDS011;1798;48.486;9.232;2023-06-14T06:42:49;15.37;;;7.33;;
3567;SDS011;1798;48.486;9.232;2023-06-14T06:45:16;23.43;;;8.60;;
3567;SDS011;1798;48.486;9.232;2023-06-14T06:47:42;13.57;;;7.90;;
3567;SDS011;1798;48.486;9.232;2023-06-14T06:50:11;19.63;;;7.70;;
3567;SDS011;1798;48.486;9.232;2023-06-14T06:52:38;19.43;;;9.23;;
3567;SDS011;1798;48.486;9.232;2023-06-14T06:55:05;16.23;;;7.97;;
3567;SDS011;1798;48.486;9.232;2023-06-14T06:57:32;16.13;;;8.73;;
3567;SDS011;1798;48.486;9.232;2023-06-14T06:59:58;19.90;;;8.23;;
3567;SDS011;1798;48.486;9.232;2023-06-14T07:02:25;29.27;;;9.37;;
3567;SDS011;1798;48.486;9.232;2023-06-14T07:04:52;18.30;;;7.30;;
3567;SDS011;1798;48.486;9.232;2023-06-14T07:07:20;34.87;;;8.17;;
3567;SDS011;1798;48.486;9.232;2023-06-14T07:09:46;15.90;;;7.30;;
3567;SDS011;1798;48.486;9.232;2023-06-14T07:12:13;13.93;;;7.63;;
3567;SDS011;1798;48.486;9.232;2023-06-14T07:14:40;15.50;;;7.03;;
3567;SDS011;1798;48.486;9.232;2023-06-14T07:17:07;14.93;;;6.80;;
3567;SDS011;1798;48.486;9.232;2023-06-14T07:19:33;19.73;;;8.37;;
3567;SDS011;1798;48.486;9.232;2023-06-14T07:22:00;14.67;;;7.33;;
3567;SDS011;1798;48.486;9.232;2023-06-14T07:24:28;30.00;;;8.23;;
3567;SDS011;1798;48.486;9.232;2023-06-14T07:26:55;31.70;;;9.00;;
3567;SDS011;1798;48.486;9.232;2023-06-14T07:29:22;15.07;;;6.60;;
3567;SDS011;1798;48.486;9.232;2023-06-14T07:31:49;12.27;;;7.43;;
3567;SDS011;1798;48.486;9.232;2023-06-14T07:34:16;13.90;;;7.17;;
3567;SDS011;1798;48.486;9.232;2023-06-14T07:36:42;32.30;;;7.80;;
3567;SDS011;1798;48.486;9.232;2023-06-14T07:39:10;15.30;;;8.07;;
3567;SDS011;1798;48.486;9.232;2023-06-14T07:41:38;18.20;;;7.80;;
3567;SDS011;1798;48.486;9.232;2023-06-14T07:44:04;17.03;;;8.50;;
3567;SDS011;1798;48.486;9.232;2023-06-14T07:46:31;19.33;;;9.60;;
3567;SDS011;1798;48.486;9.232;2023-06-14T07:48:59;13.90;;;6.47;;
3567;SDS011;1798;48.486;9.232;2023-06-14T07:51:26;21.00;;;8.53;;
3567;SDS011;1798;48.486;9.232;2023-06-14T07:53:53;15.43;;;7.50;;
3567;SDS011;1798;48.486;9.232;2023-06-14T07:56:20;16.93;;;7.93;;
3567;SDS011;1798;48.486;9.232;2023-06-14T07:58:48;13.60;;;7.40;;
3567;SDS011;1798;48.486;9.232;2023-06-14T08:01:14;19.43;;;8.20;;
3567;SDS011;1798;48.486;9.232;2023-06-14T08:03:42;17.73;;;8.37;;
3567;SDS011;1798;48.486;9.232;2023-06-14T08:06:09;12.67;;;7.67;;
3567;SDS011;1798;48.486;9.232;2023-06-14T08:08:36;16.30;;;8.03;;
3567;SDS011;1798;48.486;9.232;2023-06-14T08:11:02;19.17;;;8.47;;
3567;SDS011;1798;48.486;9.232;2023-06-14T08:13:29;17.57;;;8.13;;
3567;SDS011;1798;48.486;9.232;2023-06-14T08:15:57;11.70;;;6.40;;
3567;SDS011;1798;48.486;9.232;2023-06-14T08:18:26;19.30;;;7.23;;
3567;SDS011;1798;48.486;9.232;2023-06-14T08:20:53;11.40;;;7.20;;
3567;SDS011;1798;48.486;9.232;2023-06-14T08:23:19;15.10;;;7.60;;
3567;SDS011;1798;48.486;9.232;2023-06-14T08:25:47;16.57;;;7.60;;
3567;SDS011;1798;48.486;9.232;2023-06-14T08:28:13;14.93;;;8.00;;
3567;SDS011;1798;48.486;9.232;2023-06-14T08:30:41;12.90;;;7.63;;
3567;SDS011;1798;48.486;9.232;2023-06-14T08:33:10;14.67;;;7.37;;
3567;SDS011;1798;48.486;9.232;2023-06-14T08:35:36;14.03;;;6.67;;
3567;SDS011;1798;48.486;9.232;2023-06-14T08:38:04;18.63;;;8.17;;
3567;SDS011;1798;48.486;9.232;2023-06-14T08:40:31;14.83;;;7.37;;
3567;SDS011;1798;48.486;9.232;2023-06-14T08:43:03;16.87;;;8.10;;
3567;SDS011;1798;48.486;9.232;2023-06-14T08:45:30;16.90;;;7.70;;
3567;SDS011;1798;48.486;9.232;2023-06-14T08:47:57;17.60;;;7.83;;
3567;SDS011;1798;48.486;9.232;2023-06-14T08:50:26;16.23;;;6.57;;
3567;SDS011;1798;48.486;9.232;2023-06-14T08:52:54;14.40;;;7.30;;
3567;SDS011;1798;48.486;9.232;2023-06-14T08:55:25;15.33;;;7.97;;
3567;SDS011;1798;48.486;9.232;2023-06-14T08:57:54;16.03;;;7.27;;
3567;SDS011;1798;48.486;9.232;2023-06-14T09:00:22;14.43;;;7.70;;
3567;SDS011;1798;48.486;9.232;2023-06-14T09:02:50;14.33;;;7.10;;
3567;SDS011;1798;48.486;9.232;2023-06-14T09:05:20;18.43;;;7.60;;
3567;SDS011;1798;48.486;9.232;2023-06-14T09:07:50;20.53;;;7.57;;
3567;SDS011;1798;48.486;9.232;2023-06-14T09:10:17;18.97;;;7.60;;
3567;SDS011;1798;48.486;9.232;2023-06-14T09:12:44;20.27;;;8.20;;
3567;SDS011;1798;48.486;9.232;2023-06-14T09:15:11;15.70;;;7.40;;
3567;SDS011;1798;48.486;9.232;2023-06-14T09:17:39;15.77;;;7.93;;
3567;SDS011;1798;48.486;9.232;2023-06-14T09:20:06;13.27;;;7.97;;
3567;SDS011;1798;48.486;9.232;2023-06-14T09:22:35;12.70;;;6.40;;
3567;SDS011;1798;48.486;9.232;2023-06-14T09:25:04;14.97;;;8.07;;
3567;SDS011;1798;48.486;9.232;2023-06-14T09:27:32;41.07;;;7.87;;
3567;SDS011;1798;48.486;9.232;2023-06-14T09:30:00;16.10;;;7.83;;
3567;SDS011;1798;48.486;9.232;2023-06-14T09:32:28;23.13;;;8.10;;
3567;SDS011;1798;48.486;9.232;2023-06-14T09:34:55;14.57;;;7.20;;
3567;SDS011;1798;48.486;9.232;2023-06-14T09:37:29;24.27;;;7.10;;
3567;SDS011;1798;48.486;9.232;2023-06-14T09:39:57;15.73;;;7.37;;
3567;SDS011;1798;48.486;9.232;2023-06-14T09:42:25;18.17;;;8.10;;
3567;SDS011;1798;48.486;9.232;2023-06-14T09:44:53;14.00;;;7.40;;
3567;SDS011;1798;48.486;9.232;2023-06-14T09:47:20;26.97;;;8.40;;
3567;SDS011;1798;48.486;9.232;2023-06-14T09:49:47;16.60;;;7.90;;
3567;SDS011;1798;48.486;9.232;2023-06-14T09:52:15;16.70;;;8.30;;
3567;SDS011;1798;48.486;9.232;2023-06-14T09:54:43;19.50;;;7.90;;
3567;SDS011;1798;48.486;9.232;2023-06-14T09:57:11;16.80;;;8.07;;
3567;SDS011;1798;48.486;9.232;2023-06-14T09:59:41;19.30;;;8.00;;
3567;SDS011;1798;48.486;9.232;2023-06-14T10:02:11;17.73;;;7.27;;
3567;SDS011;1798;48.486;9.232;2023-06-14T10:04:46;14.27;;;6.80;;
3567;SDS011;1798;48.486;9.232;2023-06-14T10:07:13;16.17;;;7.97;;
3567;SDS011;1798;48.486;9.232;2023-06-14T10:09:41;12.40;;;6.87;;
3567;SDS011;1798;48.486;9.232;2023-06-14T10:12:13;16.43;;;8.23;;
3567;SDS011;1798;48.486;9.232;2023-06-14T10:14:47;13.10;;;7.00;;
3567;SDS011;1798;48.486;9.232;2023-06-14T10:17:17;16.47;;;7.30;;
3567;SDS011;1798;48.486;9.232;2023-06-14T10:19:48;20.27;;;7.43;;
3567;SDS011;1798;48.486;9.232;2023-06-14T10:22:19;12.67;;;7.20;;
3567;SDS011;1798;48.486;9.232;2023-06-14T10:24:50;12.87;;;8.30;;
3567;SDS011;1798;48.486;9.232;2023-06-14T10:27:16;10.00;;;6.17;;
3567;SDS011;1798;48.486;9.232;2023-06-14T10:30:06;13.60;;;7.27;;
3567;SDS011;1798;48.486;9.232;2023-06-14T10:32:34;11.43;;;6.60;;
3567;SDS011;1798;48.486;9.232;2023-06-14T10:35:01;12.47;;;7.27;;
3567;SDS011;1798;48.486;9.232;2023-06-14T10:37:32;11.20;;;7.27;;
3567;SDS011;1798;48.486;9.232;2023-06-14T10:39:58;15.70;;;7.50;;
3567;SDS011;1798;48.486;9.232;2023-06-14T10:42:28;15.13;;;7.80;;
3567;SDS011;1798;48.486;9.232;2023-06-14T10:44:55;12.20;;;8.40;;
3567;SDS011;1798;48.486;9.232;2023-06-14T10:47:24;12.67;;;7.50;;
3567;SDS011;1798;48.486;9.232;2023-06-14T10:49:53;19.07;;;8.00;;
3567;SDS011;1798;48.486;9.232;2023-06-14T10:52:21;12.97;;;7.60;;
3567;SDS011;1798;48.486;9.232;2023-06-14T10:55:05;12.53;;;7.70;;
3567;SDS011;1798;48.486;9.232;2023-06-14T10:57:36;18.00;;;8.37;;
3567;SDS011;1798;48.486;9.232;2023-06-14T11:00:04;15.63;;;7.27;;
3567;SDS011;1798;48.486;9.232;2023-06-14T11:02:49;16.13;;;7.77;;
3567;SDS011;1798;48.486;9.232;2023-06-14T11:05:33;15.23;;;7.77;;
3567;SDS011;1798;48.486;9.232;2023-06-14T11:08:18;15.10;;;8.17;;
3567;SDS011;1798;48.486;9.232;2023-06-14T11:10:57;15.03;;;7.83;;
3567;SDS011;1798;48.486;9.232;2023-06-14T11:13:25;10.97;;;6.73;;
3567;SDS011;1798;48.486;9.232;2023-06-14T11:15:53;18.43;;;6.67;;
3567;SDS011;1798;48.486;9.232;2023-06-14T11:18:24;18.57;;;9.00;;
3567;SDS011;1798;48.486;9.232;2023-06-14T11:20:52;17.23;;;9.30;;
3567;SDS011;1798;48.486;9.232;2023-06-14T11:23:20;13.43;;;8.13;;
3567;SDS011;1798;48.486;9.232;2023-06-14T11:25:49;17.93;;;7.70;;
3567;SDS011;1798;48.486;9.232;2023-06-14T11:28:16;14.87;;;6.67;;
3567;SDS011;1798;48.486;9.232;2023-06-14T11:30:44;13.30;;;7.23;;
3567;SDS011;1798;48.486;9.232;2023-06-14T11:33:14;14.00;;;7.47;;
3567;SDS011;1798;48.486;9.232;2023-06-14T11:35:45;13.37;;;7.90;;
3567;SDS011;1798;48.486;9.232;2023-06-14T11:38:11;16.13;;;7.40;;
3567;SDS011;1798;48.486;9.232;2023-06-14T11:40:39;35.40;;;6.93;;
3567;SDS011;1798;48.486;9.232;2023-06-14T11:43:05;13.20;;;7.93;;
3567;SDS011;1798;48.486;9.232;2023-06-14T11:45:32;15.80;;;8.67;;
3567;SDS011;1798;48.486;9.232;2023-06-14T11:48:00;11.47;;;7.47;;
3567;SDS011;1798;48.486;9.232;2023-06-14T11:50:27;13.10;;;6.77;;
3567;SDS011;1798;48.486;9.232;2023-06-14T11:52:55;15.07;;;7.10;;
3567;SDS011;1798;48.486;9.232;2023-06-14T11:55:24;13.83;;;7.87;;
3567;SDS011;1798;48.486;9.232;2023-06-14T11:57:53;13.37;;;7.20;;
3567;SDS011;1798;48.486;9.232;2023-06-14T12:00:22;13.57;;;7.80;;
3567;SDS011;1798;48.486;9.232;2023-06-14T12:02:52;21.30;;;7.07;;
3567;SDS011;1798;48.486;9.232;2023-06-14T12:05:21;13.27;;;8.10;;
3567;SDS011;1798;48.486;9.232;2023-06-14T12:07:48;15.17;;;8.43;;
3567;SDS011;1798;48.486;9.232;2023-06-14T12:10:16;17.20;;;7.57;;
3567;SDS011;1798;48.486;9.232;2023-06-14T12:12:43;14.50;;;8.27;;
3567;SDS011;1798;48.486;9.232;2023-06-14T12:15:10;23.53;;;8.40;;
3567;SDS011;1798;48.486;9.232;2023-06-14T12:17:37;15.77;;;7.87;;
3567;SDS011;1798;48.486;9.232;2023-06-14T12:20:07;14.47;;;7.77;;
3567;SDS011;1798;48.486;9.232;2023-06-14T12:22:36;14.57;;;6.57;;
3567;SDS011;1798;48.486;9.232;2023-06-14T12:25:03;13.50;;;7.30;;
3567;SDS011;1798;48.486;9.232;2023-06-14T12:27:32;16.73;;;7.50;;
3567;SDS011;1798;48.486;9.232;2023-06-14T12:29:59;14.90;;;7.80;;
3567;SDS011;1798;48.486;9.232;2023-06-14T12:32:26;16.30;;;7.47;;
3567;SDS011;1798;48.486;9.232;2023-06-14T12:34:53;13.13;;;7.20;;
3567;SDS011;1798;48.486;9.232;2023-06-14T12:37:20;10.97;;;6.70;;
3567;SDS011;1798;48.486;9.232;2023-06-14T12:39:47;21.63;;;8.50;;
3567;SDS011;1798;48.486;9.232;2023-06-14T12:42:16;13.43;;;7.50;;
3567;SDS011;1798;48.486;9.232;2023-06-14T12:44:44;28.77;;;8.80;;
3567;SDS011;1798;48.486;9.232;2023-06-14T12:47:11;11.77;;;7.80;;
3567;SDS011;1798;48.486;9.232;2023-06-14T12:49:38;20.90;;;8.37;;
3567;SDS011;1798;48.486;9.232;2023-06-14T12:52:06;13.40;;;7.63;;
3567;SDS011;1798;48.486;9.232;2023-06-14T12:54:34;18.90;;;7.33;;
3567;SDS011;1798;48.486;9.232;2023-06-14T12:57:01;17.70;;;8.63;;
3567;SDS011;1798;48.486;9.232;2023-06-14T12:59:28;13.63;;;7.00;;
3567;SDS011;1798;48.486;9.232;2023-06-14T13:01:59;11.10;;;7.10;;
3567;SDS011;1798;48.486;9.232;2023-06-14T13:04:36;14.00;;;7.30;;
3567;SDS011;1798;48.486;9.232;2023-06-14T13:07:02;15.90;;;7.87;;
3567;SDS011;1798;48.486;9.232;2023-06-14T13:09:29;13.10;;;7.67;;
3567;SDS011;1798;48.486;9.232;2023-06-14T13:11:56;31.40;;;7.67;;
3567;SDS011;1798;48.486;9.232;2023-06-14T13:14:23;15.20;;;8.27;;
3567;SDS011;1798;48.486;9.232;2023-06-14T13:16:51;16.80;;;8.63;;
3567;SDS011;1798;48.486;9.232;2023-06-14T13:19:19;29.70;;;7.80;;
3567;SDS011;1798;48.486;9.232;2023-06-14T13:21:45;19.53;;;7.97;;
3567;SDS011;1798;48.486;9.232;2023-06-14T13:24:12;12.10;;;7.37;;
3567;SDS011;1798;48.486;9.232;2023-06-14T13:26:39;14.40;;;7.53;;
3567;SDS011;1798;48.486;9.232;2023-06-14T13:29:05;10.50;;;6.87;;
3567;SDS011;1798;48.486;9.232;2023-06-14T13:31:32;12.77;;;7.00;;
3567;SDS011;1798;48.486;9.232;2023-06-14T13:33:59;17.63;;;6.97;;
3567;SDS011;1798;48.486;9.232;2023-06-14T13:36:27;21.10;;;8.70;;
3567;SDS011;1798;48.486;9.232;2023-06-14T13:38:55;13.00;;;7.50;;
3567;SDS011;1798;48.486;9.232;2023-06-14T13:41:23;12.27;;;7.30;;
3567;SDS011;1798;48.486;9.232;2023-06-14T13:43:56;15.20;;;6.70;;
3567;SDS011;1798;48.486;9.232;2023-06-14T13:46:23;11.47;;;6.83;;
3567;SDS011;1798;48.486;9.232;2023-06-14T13:48:50;18.10;;;7.67;;
3567;SDS011;1798;48.486;9.232;2023-06-14T13:51:17;17.10;;;8.40;;
3567;SDS011;1798;48.486;9.232;2023-06-14T13:53:47;12.90;;;7.50;;
3567;SDS011;1798;48.486;9.232;2023-06-14T13:56:14;11.77;;;7.03;;
3567;SDS011;1798;48.486;9.232;2023-06-14T13:58:41;16.57;;;8.67;;
3567;SDS011;1798;48.486;9.232;2023-06-14T14:01:08;14.43;;;8.60;;
3567;SDS011;1798;48.486;9.232;2023-06-14T14:03:35;13.70;;;7.43;;
3567;SDS011;1798;48.486;9.232;2023-06-14T14:06:01;20.30;;;8.47;;
3567;SDS011;1798;48.486;9.232;2023-06-14T14:08:29;14.70;;;8.10;;
3567;SDS011;1798;48.486;9.232;2023-06-14T14:10:57;13.07;;;7.60;;
3567;SDS011;1798;48.486;9.232;2023-06-14T14:13:23;15.17;;;8.27;;
3567;SDS011;1798;48.486;9.232;2023-06-14T14:15:50;13.80;;;7.60;;
3567;SDS011;1798;48.486;9.232;2023-06-14T14:18:17;24.83;;;9.70;;
3567;SDS011;1798;48.486;9.232;2023-06-14T14:20:45;14.77;;;8.03;;
3567;SDS011;1798;48.486;9.232;2023-06-14T14:23:12;31.07;;;9.37;;
3567;SDS011;1798;48.486;9.232;2023-06-14T14:25:39;13.27;;;7.63;;
3567;SDS011;1798;48.486;9.232;2023-06-14T14:28:07;16.33;;;8.93;;
3567;SDS011;1798;48.486;9.232;2023-06-14T14:30:33;30.47;;;8.40;;
3567;SDS011;1798;48.486;9.232;2023-06-14T14:33:03;27.63;;;10.13;;
3567;SDS011;1798;48.486;9.232;2023-06-14T14:35:30;17.70;;;7.70;;
3567;SDS011;1798;48.486;9.232;2023-06-14T14:37:57;12.87;;;8.10;;
3567;SDS011;1798;48.486;9.232;2023-06-14T14:40:24;44.60;;;7.57;;
3567;SDS011;1798;48.486;9.232;2023-06-14T14:42:51;13.50;;;7.83;;
3567;SDS011;1798;48.486;9.232;2023-06-14T14:45:19;20.83;;;8.80;;
3567;SDS011;1798;48.486;9.232;2023-06-14T14:47:46;12.63;;;8.30;;
3567;SDS011;1798;48.486;9.232;2023-06-14T14:50:13;12.30;;;7.90;;
3567;SDS011;1798;48.486;9.232;2023-06-14T14:52:40;23.77;;;8.40;;
3567;SDS011;1798;48.486;9.232;2023-06-14T14:55:07;17.10;;;7.67;;
3567;SDS011;1798;48.486;9.232;2023-06-14T14:57:34;18.13;;;7.60;;
3567;SDS011;1798;48.486;9.232;2023-06-14T15:00:02;13.93;;;7.27;;
3567;SDS011;1798;48.486;9.232;2023-06-14T15:02:30;15.13;;;7.93;;
3567;SDS011;1798;48.486;9.232;2023-06-14T15:04:57;16.13;;;7.73;;
3567;SDS011;1798;48.486;9.232;2023-06-14T15:07:25;16.50;;;8.63;;